sensor_id;sensor_type;location;lat;lon;timestamp;P1;durP1;ratioP1;P2;durP2;ratioP2
24873;SDS011;12945;42.648;23.370;2023-07-13T00:00:17;11.38;;;4.82;;
24873;SDS011;12945;42.648;23.370;2023-07-13T00:02:42;13.07;;;4.65;;
24873;SDS011;12945;42.648;23.370;2023-07-13T00:05:08;9.52;;;4.72;;
24873;SDS011;12945;42.648;23.370;2023-07-13T00:07:33;8.23;;;4.70;;
24873;SDS011;12945;42.648;23.370;2023-07-13T00:09:59;7.88;;;4.35;;
24873;SDS011;12945;42.648;23.370;2023-07-13T00:14:50;7.80;;;4.93;;
24873;SDS011;12945;42.648;23.370;2023-07-13T00:17:15;8.30;;;4.70;;
24873;SDS011;12945;42.648;23.370;2023-07-13T00:19:40;11.75;;;4.72;;
24873;SDS011;12945;42.648;23.370;2023-07-13T00:22:06;16.65;;;5.68;;
24873;SDS011;12945;42.648;23.370;2023-07-13T00:24:31;21.73;;;6.10;;
24873;SDS011;12945;42.648;23.370;2023-07-13T00:26:56;27.73;;;8.27;;
24873;SDS011;12945;42.648;23.370;2023-07-13T00:29:22;19.33;;;6.47;;
24873;SDS011;12945;42.648;23.370;2023-07-13T00:31:47;12.13;;;6.28;;
24873;SDS011;12945;42.648;23.370;2023-07-13T00:34:12;15.50;;;6.93;;
24873;SDS011;12945;42.648;23.370;2023-07-13T00:36:37;15.80;;;5.55;;
24873;SDS011;12945;42.648;23.370;2023-07-13T00:39:03;10.38;;;4.38;;
24873;SDS011;12945;42.648;23.370;2023-07-13T00:41:29;13.60;;;4.50;;
24873;SDS011;12945;42.648;23.370;2023-07-13T00:43:54;11.27;;;4.85;;
24873;SDS011;12945;42.648;23.370;2023-07-13T00:46:21;11.68;;;5.20;;
24873;SDS011;12945;42.648;23.370;2023-07-13T00:48:47;7.30;;;4.45;;
24873;SDS011;12945;42.648;23.370;2023-07-13T00:51:14;6.25;;;4.72;;
24873;SDS011;12945;42.648;23.370;2023-07-13T00:53:40;11.45;;;4.80;;
24873;SDS011;12945;42.648;23.370;2023-07-13T00:56:05;9.30;;;4.97;;
24873;SDS011;12945;42.648;23.370;2023-07-13T00:58:31;7.50;;;4.85;;
24873;SDS011;12945;42.648;23.370;2023-07-13T01:00:57;7.70;;;4.45;;
24873;SDS011;12945;42.648;23.370;2023-07-13T01:03:22;7.13;;;4.88;;
24873;SDS011;12945;42.648;23.370;2023-07-13T01:05:50;8.60;;;4.47;;
24873;SDS011;12945;42.648;23.370;2023-07-13T01:08:18;8.25;;;4.75;;
24873;SDS011;12945;42.648;23.370;2023-07-13T01:10:54;9.02;;;4.80;;
24873;SDS011;12945;42.648;23.370;2023-07-13T01:13:19;13.13;;;4.97;;
24873;SDS011;12945;42.648;23.370;2023-07-13T01:15:46;9.90;;;4.63;;
24873;SDS011;12945;42.648;23.370;2023-07-13T01:18:16;7.50;;;4.95;;
24873;SDS011;12945;42.648;23.370;2023-07-13T01:20:50;7.28;;;5.10;;
24873;SDS011;12945;42.648;23.370;2023-07-13T01:23:15;7.00;;;4.72;;
24873;SDS011;12945;42.648;23.370;2023-07-13T01:25:41;9.15;;;5.13;;
24873;SDS011;12945;42.648;23.370;2023-07-13T01:28:06;8.15;;;5.45;;
24873;SDS011;12945;42.648;23.370;2023-07-13T01:30:34;12.60;;;4.90;;
24873;SDS011;12945;42.648;23.370;2023-07-13T01:32:59;6.57;;;5.13;;
24873;SDS011;12945;42.648;23.370;2023-07-13T01:35:25;9.07;;;5.38;;
24873;SDS011;12945;42.648;23.370;2023-07-13T01:37:52;8.50;;;5.07;;
24873;SDS011;12945;42.648;23.370;2023-07-13T01:40:17;9.27;;;5.28;;
24873;SDS011;12945;42.648;23.370;2023-07-13T01:42:42;10.45;;;4.85;;
24873;SDS011;12945;42.648;23.370;2023-07-13T01:45:08;10.18;;;5.45;;
24873;SDS011;12945;42.648;23.370;2023-07-13T01:47:33;7.32;;;4.85;;
24873;SDS011;12945;42.648;23.370;2023-07-13T01:49:59;10.88;;;5.35;;
24873;SDS011;12945;42.648;23.370;2023-07-13T01:52:24;6.30;;;5.30;;
24873;SDS011;12945;42.648;23.370;2023-07-13T01:54:50;7.63;;;4.90;;
24873;SDS011;12945;42.648;23.370;2023-07-13T01:57:15;8.68;;;5.38;;
24873;SDS011;12945;42.648;23.370;2023-07-13T01:59:40;8.35;;;5.55;;
24873;SDS011;12945;42.648;23.370;2023-07-13T02:02:06;8.20;;;5.32;;
24873;SDS011;12945;42.648;23.370;2023-07-13T02:04:31;7.07;;;4.95;;
24873;SDS011;12945;42.648;23.370;2023-07-13T02:06:56;7.82;;;5.63;;
24873;SDS011;12945;42.648;23.370;2023-07-13T02:09:21;6.45;;;4.88;;
24873;SDS011;12945;42.648;23.370;2023-07-13T02:11:47;11.00;;;5.03;;
24873;SDS011;12945;42.648;23.370;2023-07-13T02:14:13;8.82;;;5.20;;
24873;SDS011;12945;42.648;23.370;2023-07-13T02:16:40;10.00;;;5.45;;
24873;SDS011;12945;42.648;23.370;2023-07-13T02:19:05;7.93;;;5.20;;
24873;SDS011;12945;42.648;23.370;2023-07-13T02:21:31;14.35;;;5.75;;
24873;SDS011;12945;42.648;23.370;2023-07-13T02:23:56;7.07;;;5.50;;
24873;SDS011;12945;42.648;23.370;2023-07-13T02:26:22;7.65;;;5.25;;
24873;SDS011;12945;42.648;23.370;2023-07-13T02:28:48;10.95;;;5.95;;
24873;SDS011;12945;42.648;23.370;2023-07-13T02:31:14;7.93;;;5.70;;
24873;SDS011;12945;42.648;23.370;2023-07-13T02:33:39;13.52;;;5.68;;
24873;SDS011;12945;42.648;23.370;2023-07-13T02:36:05;6.22;;;4.70;;
24873;SDS011;12945;42.648;23.370;2023-07-13T02:38:31;10.50;;;5.78;;
24873;SDS011;12945;42.648;23.370;2023-07-13T02:40:59;8.50;;;5.35;;
24873;SDS011;12945;42.648;23.370;2023-07-13T02:43:24;10.95;;;5.68;;
24873;SDS011;12945;42.648;23.370;2023-07-13T02:45:49;9.35;;;5.53;;
24873;SDS011;12945;42.648;23.370;2023-07-13T02:48:14;9.70;;;5.45;;
24873;SDS011;12945;42.648;23.370;2023-07-13T02:50:40;7.93;;;5.35;;
24873;SDS011;12945;42.648;23.370;2023-07-13T02:53:05;6.93;;;5.47;;
24873;SDS011;12945;42.648;23.370;2023-07-13T02:55:31;9.20;;;6.00;;
24873;SDS011;12945;42.648;23.370;2023-07-13T02:57:56;6.47;;;5.00;;
24873;SDS011;12945;42.648;23.370;2023-07-13T03:00:22;8.88;;;5.82;;
24873;SDS011;12945;42.648;23.370;2023-07-13T03:02:47;11.70;;;5.80;;
24873;SDS011;12945;42.648;23.370;2023-07-13T03:05:13;11.98;;;5.82;;
24873;SDS011;12945;42.648;23.370;2023-07-13T03:07:39;10.80;;;5.75;;
24873;SDS011;12945;42.648;23.370;2023-07-13T03:10:04;9.05;;;5.78;;
24873;SDS011;12945;42.648;23.370;2023-07-13T03:12:30;12.27;;;6.25;;
24873;SDS011;12945;42.648;23.370;2023-07-13T03:14:55;8.05;;;6.10;;
24873;SDS011;12945;42.648;23.370;2023-07-13T03:17:20;7.40;;;5.85;;
24873;SDS011;12945;42.648;23.370;2023-07-13T03:19:45;9.30;;;6.32;;
24873;SDS011;12945;42.648;23.370;2023-07-13T03:22:14;10.23;;;6.35;;
24873;SDS011;12945;42.648;23.370;2023-07-13T03:24:40;16.20;;;5.95;;
24873;SDS011;12945;42.648;23.370;2023-07-13T03:27:05;11.77;;;6.75;;
24873;SDS011;12945;42.648;23.370;2023-07-13T03:29:31;10.88;;;6.15;;
24873;SDS011;12945;42.648;23.370;2023-07-13T03:31:57;10.82;;;5.93;;
24873;SDS011;12945;42.648;23.370;2023-07-13T03:34:22;12.35;;;6.63;;
24873;SDS011;12945;42.648;23.370;2023-07-13T03:36:47;8.18;;;6.45;;
24873;SDS011;12945;42.648;23.370;2023-07-13T03:39:12;12.35;;;6.40;;
24873;SDS011;12945;42.648;23.370;2023-07-13T03:41:38;11.35;;;6.10;;
24873;SDS011;12945;42.648;23.370;2023-07-13T03:44:03;15.85;;;6.80;;
24873;SDS011;12945;42.648;23.370;2023-07-13T03:46:29;14.13;;;8.57;;
24873;SDS011;12945;42.648;23.370;2023-07-13T03:48:54;8.10;;;6.15;;
24873;SDS011;12945;42.648;23.370;2023-07-13T03:51:19;11.23;;;6.50;;
24873;SDS011;12945;42.648;23.370;2023-07-13T03:53:45;13.93;;;6.57;;
24873;SDS011;12945;42.648;23.370;2023-07-13T03:56:11;18.25;;;6.93;;
24873;SDS011;12945;42.648;23.370;2023-07-13T03:58:38;12.15;;;6.60;;
24873;SDS011;12945;42.648;23.370;2023-07-13T04:01:04;18.45;;;6.45;;
24873;SDS011;12945;42.648;23.370;2023-07-13T04:03:30;15.10;;;6.82;;
24873;SDS011;12945;42.648;23.370;2023-07-13T04:05:58;14.70;;;6.38;;
24873;SDS011;12945;42.648;23.370;2023-07-13T04:08:24;11.10;;;7.25;;
24873;SDS011;12945;42.648;23.370;2023-07-13T04:10:50;12.73;;;6.38;;
24873;SDS011;12945;42.648;23.370;2023-07-13T04:13:15;16.88;;;6.78;;
24873;SDS011;12945;42.648;23.370;2023-07-13T04:15:40;13.88;;;7.20;;
24873;SDS011;12945;42.648;23.370;2023-07-13T04:18:06;14.90;;;6.68;;
24873;SDS011;12945;42.648;23.370;2023-07-13T04:20:31;11.88;;;6.60;;
24873;SDS011;12945;42.648;23.370;2023-07-13T04:22:57;18.70;;;7.30;;
24873;SDS011;12945;42.648;23.370;2023-07-13T04:25:23;11.27;;;6.55;;
24873;SDS011;12945;42.648;23.370;2023-07-13T04:27:49;13.18;;;6.70;;
24873;SDS011;12945;42.648;23.370;2023-07-13T04:30:15;13.73;;;6.65;;
24873;SDS011;12945;42.648;23.370;2023-07-13T04:32:40;12.48;;;7.10;;
24873;SDS011;12945;42.648;23.370;2023-07-13T04:35:06;15.73;;;6.72;;
24873;SDS011;12945;42.648;23.370;2023-07-13T04:37:31;15.80;;;6.68;;
24873;SDS011;12945;42.648;23.370;2023-07-13T04:39:57;10.95;;;6.88;;
24873;SDS011;12945;42.648;23.370;2023-07-13T04:42:22;14.10;;;7.10;;
24873;SDS011;12945;42.648;23.370;2023-07-13T04:44:48;12.45;;;6.60;;
24873;SDS011;12945;42.648;23.370;2023-07-13T04:47:14;13.32;;;6.50;;
24873;SDS011;12945;42.648;23.370;2023-07-13T04:49:39;13.73;;;7.10;;
24873;SDS011;12945;42.648;23.370;2023-07-13T04:52:05;10.10;;;7.03;;
24873;SDS011;12945;42.648;23.370;2023-07-13T04:54:32;16.08;;;8.02;;
24873;SDS011;12945;42.648;23.370;2023-07-13T04:56:57;17.20;;;7.65;;
24873;SDS011;12945;42.648;23.370;2023-07-13T04:59:23;17.65;;;7.47;;
24873;SDS011;12945;42.648;23.370;2023-07-13T05:01:49;17.35;;;7.47;;
24873;SDS011;12945;42.648;23.370;2023-07-13T05:04:14;12.52;;;7.13;;
24873;SDS011;12945;42.648;23.370;2023-07-13T05:06:40;13.23;;;6.85;;
24873;SDS011;12945;42.648;23.370;2023-07-13T05:09:05;12.15;;;7.50;;
24873;SDS011;12945;42.648;23.370;2023-07-13T05:11:32;14.35;;;7.85;;
24873;SDS011;12945;42.648;23.370;2023-07-13T05:13:57;11.60;;;6.78;;
24873;SDS011;12945;42.648;23.370;2023-07-13T05:16:23;15.98;;;8.10;;
24873;SDS011;12945;42.648;23.370;2023-07-13T05:18:48;11.60;;;7.65;;
24873;SDS011;12945;42.648;23.370;2023-07-13T05:21:13;16.08;;;8.38;;
24873;SDS011;12945;42.648;23.370;2023-07-13T05:23:39;21.88;;;8.10;;
24873;SDS011;12945;42.648;23.370;2023-07-13T05:26:06;15.48;;;7.57;;
24873;SDS011;12945;42.648;23.370;2023-07-13T05:28:32;8.45;;;6.65;;
24873;SDS011;12945;42.648;23.370;2023-07-13T05:30:57;18.25;;;6.97;;
24873;SDS011;12945;42.648;23.370;2023-07-13T05:33:23;12.32;;;6.90;;
24873;SDS011;12945;42.648;23.370;2023-07-13T05:35:48;13.93;;;8.02;;
24873;SDS011;12945;42.648;23.370;2023-07-13T05:38:14;9.85;;;6.63;;
24873;SDS011;12945;42.648;23.370;2023-07-13T05:40:39;12.30;;;6.55;;
24873;SDS011;12945;42.648;23.370;2023-07-13T05:43:04;7.25;;;6.55;;
24873;SDS011;12945;42.648;23.370;2023-07-13T05:45:30;8.93;;;6.75;;
24873;SDS011;12945;42.648;23.370;2023-07-13T05:47:55;13.40;;;6.63;;
24873;SDS011;12945;42.648;23.370;2023-07-13T05:50:21;9.85;;;7.18;;
24873;SDS011;12945;42.648;23.370;2023-07-13T05:52:46;12.30;;;7.15;;
24873;SDS011;12945;42.648;23.370;2023-07-13T05:55:12;15.52;;;7.70;;
24873;SDS011;12945;42.648;23.370;2023-07-13T05:57:38;10.60;;;6.60;;
24873;SDS011;12945;42.648;23.370;2023-07-13T06:00:03;12.82;;;7.43;;
24873;SDS011;12945;42.648;23.370;2023-07-13T06:02:29;13.63;;;7.55;;
24873;SDS011;12945;42.648;23.370;2023-07-13T06:04:54;10.65;;;7.40;;
24873;SDS011;12945;42.648;23.370;2023-07-13T06:07:19;10.73;;;7.30;;
24873;SDS011;12945;42.648;23.370;2023-07-13T06:09:44;17.35;;;7.28;;
24873;SDS011;12945;42.648;23.370;2023-07-13T06:12:10;16.52;;;7.47;;
24873;SDS011;12945;42.648;23.370;2023-07-13T06:14:35;12.27;;;7.95;;
24873;SDS011;12945;42.648;23.370;2023-07-13T06:17:00;14.13;;;8.25;;
24873;SDS011;12945;42.648;23.370;2023-07-13T06:19:26;15.57;;;8.10;;
24873;SDS011;12945;42.648;23.370;2023-07-13T06:21:51;12.13;;;7.93;;
24873;SDS011;12945;42.648;23.370;2023-07-13T06:24:16;18.83;;;8.48;;
24873;SDS011;12945;42.648;23.370;2023-07-13T06:26:42;12.85;;;7.07;;
24873;SDS011;12945;42.648;23.370;2023-07-13T06:29:07;12.35;;;7.45;;
24873;SDS011;12945;42.648;23.370;2023-07-13T06:31:32;12.55;;;7.50;;
24873;SDS011;12945;42.648;23.370;2023-07-13T06:33:58;11.20;;;7.18;;
24873;SDS011;12945;42.648;23.370;2023-07-13T06:36:23;12.20;;;7.10;;
24873;SDS011;12945;42.648;23.370;2023-07-13T06:38:48;15.15;;;7.38;;
24873;SDS011;12945;42.648;23.370;2023-07-13T06:41:14;16.95;;;7.50;;
24873;SDS011;12945;42.648;23.370;2023-07-13T06:43:39;14.60;;;7.30;;
24873;SDS011;12945;42.648;23.370;2023-07-13T06:46:04;13.73;;;7.38;;
24873;SDS011;12945;42.648;23.370;2023-07-13T06:48:30;20.00;;;7.28;;
24873;SDS011;12945;42.648;23.370;2023-07-13T06:50:55;14.45;;;7.78;;
24873;SDS011;12945;42.648;23.370;2023-07-13T06:53:21;12.75;;;7.40;;
24873;SDS011;12945;42.648;23.370;2023-07-13T06:55:47;13.82;;;6.65;;
24873;SDS011;12945;42.648;23.370;2023-07-13T06:58:14;13.32;;;7.15;;
24873;SDS011;12945;42.648;23.370;2023-07-13T07:00:39;14.95;;;8.75;;
24873;SDS011;12945;42.648;23.370;2023-07-13T07:03:05;12.10;;;7.82;;
24873;SDS011;12945;42.648;23.370;2023-07-13T07:05:30;19.88;;;8.50;;
24873;SDS011;12945;42.648;23.370;2023-07-13T07:07:56;12.18;;;7.60;;
24873;SDS011;12945;42.648;23.370;2023-07-13T07:10:21;14.77;;;7.43;;
24873;SDS011;12945;42.648;23.370;2023-07-13T07:12:46;15.82;;;10.18;;
24873;SDS011;12945;42.648;23.370;2023-07-13T07:15:12;14.70;;;7.70;;
24873;SDS011;12945;42.648;23.370;2023-07-13T07:17:37;22.65;;;8.00;;
24873;SDS011;12945;42.648;23.370;2023-07-13T07:20:03;20.25;;;7.53;;
24873;SDS011;12945;42.648;23.370;2023-07-13T07:22:29;13.52;;;8.45;;
24873;SDS011;12945;42.648;23.370;2023-07-13T07:24:55;14.63;;;7.90;;
24873;SDS011;12945;42.648;23.370;2023-07-13T07:27:21;11.73;;;7.05;;
24873;SDS011;12945;42.648;23.370;2023-07-13T07:29:46;20.77;;;7.72;;
24873;SDS011;12945;42.648;23.370;2023-07-13T07:32:11;16.48;;;7.72;;
24873;SDS011;12945;42.648;23.370;2023-07-13T07:34:37;18.92;;;8.07;;
24873;SDS011;12945;42.648;23.370;2023-07-13T07:37:02;18.23;;;7.70;;
24873;SDS011;12945;42.648;23.370;2023-07-13T07:39:28;19.95;;;7.50;;
24873;SDS011;12945;42.648;23.370;2023-07-13T07:41:53;22.20;;;8.87;;
24873;SDS011;12945;42.648;23.370;2023-07-13T07:44:19;16.70;;;8.68;;
24873;SDS011;12945;42.648;23.370;2023-07-13T07:46:44;23.58;;;8.40;;
24873;SDS011;12945;42.648;23.370;2023-07-13T07:49:09;16.83;;;8.15;;
24873;SDS011;12945;42.648;23.370;2023-07-13T07:51:35;24.90;;;8.40;;
24873;SDS011;12945;42.648;23.370;2023-07-13T07:54:01;23.10;;;8.43;;
24873;SDS011;12945;42.648;23.370;2023-07-13T07:56:26;21.02;;;8.15;;
24873;SDS011;12945;42.648;23.370;2023-07-13T07:58:51;19.10;;;7.55;;
24873;SDS011;12945;42.648;23.370;2023-07-13T08:01:17;19.25;;;7.45;;
24873;SDS011;12945;42.648;23.370;2023-07-13T08:03:42;17.15;;;7.82;;
24873;SDS011;12945;42.648;23.370;2023-07-13T08:06:07;15.03;;;6.80;;
24873;SDS011;12945;42.648;23.370;2023-07-13T08:08:33;12.73;;;7.18;;
24873;SDS011;12945;42.648;23.370;2023-07-13T08:11:01;14.13;;;7.05;;
24873;SDS011;12945;42.648;23.370;2023-07-13T08:13:27;12.32;;;7.07;;
24873;SDS011;12945;42.648;23.370;2023-07-13T08:15:52;14.13;;;7.00;;
24873;SDS011;12945;42.648;23.370;2023-07-13T08:18:17;16.58;;;7.38;;
24873;SDS011;12945;42.648;23.370;2023-07-13T08:20:43;17.65;;;7.82;;
24873;SDS011;12945;42.648;23.370;2023-07-13T08:23:09;12.88;;;7.10;;
24873;SDS011;12945;42.648;23.370;2023-07-13T08:25:34;13.50;;;7.38;;
24873;SDS011;12945;42.648;23.370;2023-07-13T08:28:00;15.52;;;7.10;;
24873;SDS011;12945;42.648;23.370;2023-07-13T08:30:25;16.02;;;7.88;;
24873;SDS011;12945;42.648;23.370;2023-07-13T08:32:51;16.77;;;7.40;;
24873;SDS011;12945;42.648;23.370;2023-07-13T08:35:16;12.55;;;7.00;;
24873;SDS011;12945;42.648;23.370;2023-07-13T08:37:42;16.15;;;8.27;;
24873;SDS011;12945;42.648;23.370;2023-07-13T08:40:10;10.85;;;7.15;;
24873;SDS011;12945;42.648;23.370;2023-07-13T08:42:46;11.40;;;7.67;;
24873;SDS011;12945;42.648;23.370;2023-07-13T08:48:04;13.77;;;7.60;;
24873;SDS011;12945;42.648;23.370;2023-07-13T08:50:31;11.32;;;7.28;;
24873;SDS011;12945;42.648;23.370;2023-07-13T08:52:59;9.80;;;7.22;;
24873;SDS011;12945;42.648;23.370;2023-07-13T08:55:28;21.17;;;8.55;;
24873;SDS011;12945;42.648;23.370;2023-07-13T08:57:56;15.10;;;7.35;;
24873;SDS011;12945;42.648;23.370;2023-07-13T09:00:24;18.27;;;7.80;;
24873;SDS011;12945;42.648;23.370;2023-07-13T09:02:56;9.27;;;7.13;;
24873;SDS011;12945;42.648;23.370;2023-07-13T09:08:05;17.92;;;7.03;;
24873;SDS011;12945;42.648;23.370;2023-07-13T09:10:43;14.25;;;6.93;;
24873;SDS011;12945;42.648;23.370;2023-07-13T09:15:41;11.07;;;6.95;;
24873;SDS011;12945;42.648;23.370;2023-07-13T09:18:13;18.27;;;7.70;;
24873;SDS011;12945;42.648;23.370;2023-07-13T09:20:46;12.27;;;7.40;;
24873;SDS011;12945;42.648;23.370;2023-07-13T09:23:16;15.05;;;8.20;;
24873;SDS011;12945;42.648;23.370;2023-07-13T09:25:43;18.88;;;7.95;;
24873;SDS011;12945;42.648;23.370;2023-07-13T09:28:11;14.60;;;7.93;;
24873;SDS011;12945;42.648;23.370;2023-07-13T09:33:22;16.05;;;7.35;;
24873;SDS011;12945;42.648;23.370;2023-07-13T09:35:47;15.73;;;7.30;;
24873;SDS011;12945;42.648;23.370;2023-07-13T09:38:17;16.47;;;7.70;;
24873;SDS011;12945;42.648;23.370;2023-07-13T09:43:10;14.50;;;7.95;;
24873;SDS011;12945;42.648;23.370;2023-07-13T09:45:38;16.27;;;8.13;;
24873;SDS011;12945;42.648;23.370;2023-07-13T09:48:10;12.50;;;7.63;;
24873;SDS011;12945;42.648;23.370;2023-07-13T09:50:36;11.70;;;8.25;;
24873;SDS011;12945;42.648;23.370;2023-07-13T09:53:02;14.90;;;7.78;;
24873;SDS011;12945;42.648;23.370;2023-07-13T09:55:34;23.52;;;8.70;;
24873;SDS011;12945;42.648;23.370;2023-07-13T10:00:35;12.05;;;7.13;;
24873;SDS011;12945;42.648;23.370;2023-07-13T10:03:03;16.10;;;7.78;;
24873;SDS011;12945;42.648;23.370;2023-07-13T10:05:28;14.05;;;8.23;;
24873;SDS011;12945;42.648;23.370;2023-07-13T10:08:02;13.85;;;7.28;;
24873;SDS011;12945;42.648;23.370;2023-07-13T10:10:27;13.60;;;7.38;;
24873;SDS011;12945;42.648;23.370;2023-07-13T10:12:52;17.53;;;7.23;;
24873;SDS011;12945;42.648;23.370;2023-07-13T10:15:19;12.02;;;7.65;;
24873;SDS011;12945;42.648;23.370;2023-07-13T10:17:45;16.15;;;7.68;;
24873;SDS011;12945;42.648;23.370;2023-07-13T10:20:10;15.43;;;7.72;;
24873;SDS011;12945;42.648;23.370;2023-07-13T10:23:12;15.25;;;7.53;;
24873;SDS011;12945;42.648;23.370;2023-07-13T10:25:32;14.30;;;8.90;;
24873;SDS011;12945;42.648;23.370;2023-07-13T10:28:25;15.35;;;7.93;;
24873;SDS011;12945;42.648;23.370;2023-07-13T10:30:52;15.73;;;7.13;;
24873;SDS011;12945;42.648;23.370;2023-07-13T10:33:19;12.32;;;7.10;;
24873;SDS011;12945;42.648;23.370;2023-07-13T10:35:45;14.40;;;7.25;;
24873;SDS011;12945;42.648;23.370;2023-07-13T10:38:18;13.77;;;7.35;;
24873;SDS011;12945;42.648;23.370;2023-07-13T10:40:55;14.23;;;7.68;;
24873;SDS011;12945;42.648;23.370;2023-07-13T10:45:49;13.10;;;5.88;;
24873;SDS011;12945;42.648;23.370;2023-07-13T10:48:16;11.77;;;6.47;;
24873;SDS011;12945;42.648;23.370;2023-07-13T10:50:43;17.70;;;6.72;;
24873;SDS011;12945;42.648;23.370;2023-07-13T10:53:19;11.00;;;7.10;;
24873;SDS011;12945;42.648;23.370;2023-07-13T11:00:53;10.82;;;5.28;;
24873;SDS011;12945;42.648;23.370;2023-07-13T11:03:22;10.43;;;5.50;;
24873;SDS011;12945;42.648;23.370;2023-07-13T11:05:48;10.48;;;5.03;;
24873;SDS011;12945;42.648;23.370;2023-07-13T11:08:16;13.07;;;5.15;;
24873;SDS011;12945;42.648;23.370;2023-07-13T11:10:46;11.15;;;5.10;;
24873;SDS011;12945;42.648;23.370;2023-07-13T11:16:14;12.05;;;4.72;;
24873;SDS011;12945;42.648;23.370;2023-07-13T11:21:29;11.25;;;5.38;;
24873;SDS011;12945;42.648;23.370;2023-07-13T11:24:15;14.35;;;5.72;;
24873;SDS011;12945;42.648;23.370;2023-07-13T11:26:41;10.10;;;6.18;;
24873;SDS011;12945;42.648;23.370;2023-07-13T11:31:55;14.18;;;7.10;;
24873;SDS011;12945;42.648;23.370;2023-07-13T11:34:25;14.15;;;7.65;;
24873;SDS011;12945;42.648;23.370;2023-07-13T11:36:52;12.75;;;7.05;;
24873;SDS011;12945;42.648;23.370;2023-07-13T11:39:19;13.88;;;7.35;;
24873;SDS011;12945;42.648;23.370;2023-07-13T11:41:49;14.25;;;7.15;;
24873;SDS011;12945;42.648;23.370;2023-07-13T11:44:17;14.05;;;7.13;;
24873;SDS011;12945;42.648;23.370;2023-07-13T11:46:50;18.55;;;6.88;;
24873;SDS011;12945;42.648;23.370;2023-07-13T11:49:17;14.30;;;6.65;;
24873;SDS011;12945;42.648;23.370;2023-07-13T11:51:43;16.88;;;7.25;;
24873;SDS011;12945;42.648;23.370;2023-07-13T11:54:28;17.13;;;6.47;;
24873;SDS011;12945;42.648;23.370;2023-07-13T11:56:55;11.63;;;6.70;;
24873;SDS011;12945;42.648;23.370;2023-07-13T11:59:23;14.32;;;6.18;;
24873;SDS011;12945;42.648;23.370;2023-07-13T12:01:50;23.60;;;7.43;;
24873;SDS011;12945;42.648;23.370;2023-07-13T12:04:25;20.23;;;7.10;;
24873;SDS011;12945;42.648;23.370;2023-07-13T12:06:54;14.10;;;6.63;;
24873;SDS011;12945;42.648;23.370;2023-07-13T12:09:19;11.10;;;6.30;;
24873;SDS011;12945;42.648;23.370;2023-07-13T12:11:50;13.55;;;6.22;;
24873;SDS011;12945;42.648;23.370;2023-07-13T12:14:16;20.77;;;6.53;;
24873;SDS011;12945;42.648;23.370;2023-07-13T12:16:42;8.85;;;5.15;;
24873;SDS011;12945;42.648;23.370;2023-07-13T12:19:15;10.73;;;4.90;;
24873;SDS011;12945;42.648;23.370;2023-07-13T12:21:42;12.43;;;4.68;;
24873;SDS011;12945;42.648;23.370;2023-07-13T12:24:15;12.43;;;4.53;;
24873;SDS011;12945;42.648;23.370;2023-07-13T12:26:41;10.98;;;4.70;;
24873;SDS011;12945;42.648;23.370;2023-07-13T12:29:06;14.18;;;4.70;;
24873;SDS011;12945;42.648;23.370;2023-07-13T12:31:36;12.27;;;5.05;;
24873;SDS011;12945;42.648;23.370;2023-07-13T12:34:07;16.40;;;5.03;;
24873;SDS011;12945;42.648;23.370;2023-07-13T12:39:00;9.53;;;4.87;;
24873;SDS011;12945;42.648;23.370;2023-07-13T12:41:29;9.88;;;4.97;;
24873;SDS011;12945;42.648;23.370;2023-07-13T12:43:54;14.20;;;5.60;;
24873;SDS011;12945;42.648;23.370;2023-07-13T12:46:20;13.45;;;5.93;;
24873;SDS011;12945;42.648;23.370;2023-07-13T12:48:49;19.13;;;5.85;;
24873;SDS011;12945;42.648;23.370;2023-07-13T12:51:14;11.45;;;6.25;;
24873;SDS011;12945;42.648;23.370;2023-07-13T12:53:47;16.27;;;7.18;;
24873;SDS011;12945;42.648;23.370;2023-07-13T12:56:16;16.45;;;6.63;;
24873;SDS011;12945;42.648;23.370;2023-07-13T12:58:43;15.88;;;6.40;;
24873;SDS011;12945;42.648;23.370;2023-07-13T13:01:10;17.48;;;6.28;;
24873;SDS011;12945;42.648;23.370;2023-07-13T13:03:44;18.33;;;5.90;;
24873;SDS011;12945;42.648;23.370;2023-07-13T13:08:41;14.90;;;6.18;;
24873;SDS011;12945;42.648;23.370;2023-07-13T13:11:08;18.25;;;6.38;;
24873;SDS011;12945;42.648;23.370;2023-07-13T13:13:34;18.50;;;6.07;;
24873;SDS011;12945;42.648;23.370;2023-07-13T13:16:12;15.40;;;6.28;;
24873;SDS011;12945;42.648;23.370;2023-07-13T13:18:39;17.83;;;6.32;;
24873;SDS011;12945;42.648;23.370;2023-07-13T13:21:04;11.60;;;5.95;;
24873;SDS011;12945;42.648;23.370;2023-07-13T13:23:30;12.43;;;6.00;;
24873;SDS011;12945;42.648;23.370;2023-07-13T13:25:55;10.27;;;6.43;;
24873;SDS011;12945;42.648;23.370;2023-07-13T13:28:21;12.55;;;5.57;;
24873;SDS011;12945;42.648;23.370;2023-07-13T13:30:47;16.10;;;6.28;;
24873;SDS011;12945;42.648;23.370;2023-07-13T13:33:15;16.80;;;6.50;;
24873;SDS011;12945;42.648;23.370;2023-07-13T13:35:42;19.33;;;6.72;;
24873;SDS011;12945;42.648;23.370;2023-07-13T13:38:16;16.63;;;6.65;;
24873;SDS011;12945;42.648;23.370;2023-07-13T13:40:42;13.52;;;5.93;;
24873;SDS011;12945;42.648;23.370;2023-07-13T13:43:14;15.77;;;6.05;;
24873;SDS011;12945;42.648;23.370;2023-07-13T13:45:41;13.23;;;5.68;;
24873;SDS011;12945;42.648;23.370;2023-07-13T13:48:07;14.63;;;6.28;;
24873;SDS011;12945;42.648;23.370;2023-07-13T13:50:38;17.25;;;6.28;;
24873;SDS011;12945;42.648;23.370;2023-07-13T13:53:03;11.68;;;6.07;;
24873;SDS011;12945;42.648;23.370;2023-07-13T13:55:29;18.05;;;6.57;;
24873;SDS011;12945;42.648;23.370;2023-07-13T13:57:54;20.40;;;6.65;;
24873;SDS011;12945;42.648;23.370;2023-07-13T14:00:20;19.38;;;6.55;;
24873;SDS011;12945;42.648;23.370;2023-07-13T14:02:46;14.85;;;6.35;;
24873;SDS011;12945;42.648;23.370;2023-07-13T14:05:13;14.50;;;6.00;;
24873;SDS011;12945;42.648;23.370;2023-07-13T14:07:39;12.98;;;5.97;;
24873;SDS011;12945;42.648;23.370;2023-07-13T14:10:08;11.63;;;5.75;;
24873;SDS011;12945;42.648;23.370;2023-07-13T14:12:35;26.10;;;6.68;;
24873;SDS011;12945;42.648;23.370;2023-07-13T14:15:01;11.15;;;5.65;;
24873;SDS011;12945;42.648;23.370;2023-07-13T14:17:26;14.43;;;5.97;;
24873;SDS011;12945;42.648;23.370;2023-07-13T14:19:52;16.63;;;5.75;;
24873;SDS011;12945;42.648;23.370;2023-07-13T14:22:22;14.98;;;6.95;;
24873;SDS011;12945;42.648;23.370;2023-07-13T14:24:47;19.15;;;8.18;;
24873;SDS011;12945;42.648;23.370;2023-07-13T14:27:14;16.05;;;6.43;;
24873;SDS011;12945;42.648;23.370;2023-07-13T14:29:39;12.27;;;5.43;;
24873;SDS011;12945;42.648;23.370;2023-07-13T14:32:09;13.18;;;5.70;;
24873;SDS011;12945;42.648;23.370;2023-07-13T14:34:35;22.73;;;6.60;;
24873;SDS011;12945;42.648;23.370;2023-07-13T14:37:00;13.48;;;5.70;;
24873;SDS011;12945;42.648;23.370;2023-07-13T14:39:25;14.18;;;6.22;;
24873;SDS011;12945;42.648;23.370;2023-07-13T14:41:51;11.60;;;5.90;;
24873;SDS011;12945;42.648;23.370;2023-07-13T14:44:25;12.43;;;5.68;;
24873;SDS011;12945;42.648;23.370;2023-07-13T14:46:50;16.02;;;5.65;;
24873;SDS011;12945;42.648;23.370;2023-07-13T14:49:22;17.45;;;5.97;;
24873;SDS011;12945;42.648;23.370;2023-07-13T14:51:48;11.23;;;5.72;;
24873;SDS011;12945;42.648;23.370;2023-07-13T14:54:14;16.00;;;5.50;;
24873;SDS011;12945;42.648;23.370;2023-07-13T14:56:39;11.68;;;6.13;;
24873;SDS011;12945;42.648;23.370;2023-07-13T14:59:05;17.98;;;5.97;;